createdAt,value
2022-09-01T00:01:41.465Z,6.30
2022-09-01T00:04:15.428Z,5.80
2022-09-01T00:06:55.076Z,5.50
2022-09-01T00:09:24.284Z,5.40
2022-09-01T00:12:15.005Z,5.10
2022-09-01T00:14:49.037Z,5.40
2022-09-01T00:17:20.357Z,5.30
2022-09-01T00:20:04.591Z,5.00
2022-09-01T00:22:51.389Z,6.50
2022-09-01T00:25:31.992Z,5.10
2022-09-01T00:28:17.054Z,5.50
2022-09-01T00:31:16.102Z,5.40
2022-09-01T00:33:56.246Z,5.60
2022-09-01T00:36:40.101Z,4.60
2022-09-01T00:39:18.991Z,4.90
2022-09-01T00:42:18.556Z,5.30
2022-09-01T00:45:11.138Z,4.80
2022-09-01T00:47:54.517Z,6.30
2022-09-01T00:50:27.833Z,4.80
2022-09-01T00:53:18.803Z,6.00
2022-09-01T00:56:35.908Z,5.30
2022-09-01T00:59:34.375Z,4.80
2022-09-01T01:02:07.995Z,5.00
2022-09-01T01:04:48.766Z,4.50
2022-09-01T01:07:39.043Z,4.20
2022-09-01T01:10:51.285Z,4.80
2022-09-01T01:13:22.218Z,5.10
2022-09-01T01:16:03.745Z,4.50
2022-09-01T01:18:43.576Z,4.40
2022-09-01T01:21:38.507Z,4.80
2022-09-01T01:25:03.184Z,4.70
2022-09-01T01:27:54.358Z,4.80
2022-09-01T01:30:29.663Z,5.30
2022-09-01T01:33:04.041Z,5.90
2022-09-01T01:36:32.759Z,3.80
2022-09-01T01:39:25.056Z,5.20
2022-09-01T01:42:15.263Z,5.40
2022-09-01T01:45:08.119Z,4.50
2022-09-01T01:47:38.963Z,4.30
2022-09-01T01:50:40.120Z,4.50
2022-09-01T01:53:19.125Z,4.30
2022-09-01T01:55:51.815Z,4.30
2022-09-01T01:58:34.833Z,4.70
2022-09-01T02:01:16.952Z,4.10
2022-09-01T02:03:54.573Z,4.30
2022-09-01T02:06:24.922Z,4.80
2022-09-01T02:09:18.833Z,4.80
2022-09-01T02:11:46.660Z,5.20
2022-09-01T02:14:24.956Z,4.90
2022-09-01T02:16:57.775Z,4.50
2022-09-01T02:19:27.941Z,6.10
2022-09-01T02:21:55.954Z,4.60
2022-09-01T02:24:34.740Z,6.20
2022-09-01T02:27:08.126Z,5.00
2022-09-01T02:29:43.777Z,4.30
2022-09-01T02:32:12.082Z,4.20
2022-09-01T02:34:53.634Z,4.90
2022-09-01T02:37:56.416Z,4.80
2022-09-01T02:40:35.982Z,4.60
2022-09-01T02:43:20.399Z,6.10
2022-09-01T02:45:55.919Z,4.90
2022-09-01T02:48:48.905Z,5.10
2022-09-01T02:51:37.106Z,4.90
2022-09-01T02:54:18.894Z,6.20
2022-09-01T02:56:54.685Z,5.80
2022-09-01T02:59:30.133Z,5.20
2022-09-01T03:02:06.863Z,5.60
2022-09-01T03:04:38.669Z,4.90
2022-09-01T03:07:06.989Z,7.10
2022-09-01T03:09:44.078Z,6.10
2022-09-01T03:12:11.711Z,6.10
2022-09-01T03:14:42.186Z,5.30
2022-09-01T03:17:10.247Z,7.30
2022-09-01T03:19:46.617Z,5.60
2022-09-01T03:22:20.405Z,5.60
2022-09-01T03:25:11.033Z,7.50
2022-09-01T03:27:48.208Z,5.40
2022-09-01T03:30:50.732Z,5.40
2022-09-01T03:33:45.140Z,5.30
2022-09-01T03:36:36.109Z,5.70
2022-09-01T03:39:29.738Z,6.20
2022-09-01T03:42:17.548Z,7.00
2022-09-01T03:45:37.536Z,6.10
2022-09-01T03:48:28.006Z,4.60
2022-09-01T03:51:02.596Z,6.60
2022-09-01T03:53:38.030Z,7.30
2022-09-01T03:56:13.841Z,5.20
2022-09-01T03:58:48.521Z,5.70
2022-09-01T04:01:19.256Z,5.70
2022-09-01T04:03:53.445Z,6.00
2022-09-01T04:09:37.603Z,5.10
2022-09-01T04:12:18.925Z,5.10
2022-09-01T04:14:48.386Z,6.10
2022-09-01T04:17:48.554Z,6.50
2022-09-01T04:20:20.212Z,6.20
2022-09-01T04:23:52.117Z,6.10
2022-09-01T04:26:34.575Z,7.40
2022-09-01T04:29:15.173Z,6.40
2022-09-01T04:32:01.687Z,5.90
2022-09-01T04:35:09.655Z,5.90
2022-09-01T04:37:40.124Z,6.50
2022-09-01T04:40:14.123Z,6.20
2022-09-01T04:42:44.850Z,6.80
2022-09-01T04:45:19.966Z,6.00
2022-09-01T04:48:00.531Z,6.80
2022-09-01T04:50:32.783Z,7.00
2022-09-01T04:53:06.746Z,6.90
2022-09-01T04:55:43.294Z,7.20
2022-09-01T04:58:18.393Z,6.40
2022-09-01T05:01:04.839Z,6.80
2022-09-01T05:03:52.891Z,7.10
2022-09-01T05:06:26.567Z,6.50
2022-09-01T05:08:57.976Z,5.80
2022-09-01T05:11:32.676Z,6.20
2022-09-01T05:14:09.989Z,6.80
2022-09-01T05:16:43.688Z,5.60
2022-09-01T05:19:25.885Z,6.70
2022-09-01T05:21:58.299Z,7.30
2022-09-01T05:24:42.118Z,8.00
2022-09-01T05:27:14.375Z,7.50
2022-09-01T05:29:42.072Z,7.20
2022-09-01T05:32:12.754Z,6.50
2022-09-01T05:34:43.668Z,7.10
2022-09-01T05:37:15.991Z,8.80
2022-09-01T05:39:46.149Z,6.20
2022-09-01T05:42:21.516Z,7.50
2022-09-01T05:44:52.629Z,6.20
2022-09-01T05:47:21.415Z,6.50
2022-09-01T05:54:54.093Z,8.30
2022-09-01T05:57:37.615Z,8.40
2022-09-01T06:00:16.886Z,5.80
2022-09-01T06:02:51.636Z,7.60
2022-09-01T06:05:23.614Z,7.00
2022-09-01T06:07:54.351Z,6.80
2022-09-01T06:10:24.578Z,8.00
2022-09-01T06:12:54.527Z,6.80
2022-09-01T06:15:22.657Z,8.10
2022-09-01T06:17:50.497Z,7.80
2022-09-01T06:20:19.060Z,7.10
2022-09-01T06:22:47.383Z,7.60
2022-09-01T06:25:36.673Z,6.60
2022-09-01T06:28:07.633Z,7.20
2022-09-01T06:30:38.483Z,8.00
2022-09-01T06:33:09.099Z,6.70
2022-09-01T06:35:38.833Z,6.00
2022-09-01T06:38:08.103Z,5.50
2022-09-01T06:40:45.417Z,5.80
2022-09-01T06:43:16.551Z,7.30
2022-09-01T06:45:54.215Z,7.30
2022-09-01T06:48:23.306Z,5.50
2022-09-01T06:53:39.191Z,7.20
2022-09-01T06:56:12.819Z,6.60
2022-09-01T06:58:42.864Z,6.00
2022-09-01T07:01:15.342Z,5.90
2022-09-01T07:03:44.213Z,7.10
2022-09-01T07:17:42.339Z,7.50
2022-09-01T07:20:27.136Z,7.40
2022-09-01T07:23:05.491Z,5.80
2022-09-01T07:26:01.537Z,6.90
2022-09-01T07:28:39.410Z,8.60
2022-09-01T07:39:51.422Z,9.90
2022-09-01T07:42:59.010Z,5.60
2022-09-01T07:45:26.032Z,7.40
2022-09-01T07:47:54.475Z,7.40
2022-09-01T07:50:39.747Z,5.60
2022-09-01T07:53:09.448Z,7.30
2022-09-01T07:55:42.245Z,7.30
2022-09-01T07:58:13.273Z,7.00
2022-09-01T08:00:46.315Z,5.80
2022-09-01T08:03:14.545Z,6.20
2022-09-01T08:05:43.299Z,6.60
2022-09-01T08:08:29.091Z,7.90
2022-09-01T08:11:04.813Z,7.10
2022-09-01T08:13:41.886Z,8.20
2022-09-01T08:16:19.295Z,7.60
2022-09-01T08:18:49.024Z,7.20
2022-09-01T08:21:21.693Z,5.60
2022-09-01T08:23:52.378Z,7.20
2022-09-01T08:26:22.479Z,6.30
2022-09-01T08:28:55.067Z,6.30
2022-09-01T08:31:25.157Z,5.50
2022-09-01T08:33:55.215Z,6.70
2022-09-01T08:36:24.975Z,6.60
2022-09-01T08:38:53.627Z,7.00
2022-09-01T08:41:46.785Z,6.70
2022-09-01T08:44:38.096Z,5.40
2022-09-01T08:47:13.867Z,6.30
2022-09-01T08:49:46.820Z,5.70
2022-09-01T08:52:34.540Z,6.40
2022-09-01T08:55:27.399Z,6.30
2022-09-01T08:57:59.880Z,7.40
2022-09-01T09:00:39.317Z,7.70
2022-09-01T09:03:20.552Z,6.70
2022-09-01T09:06:12.225Z,6.60
2022-09-01T09:09:03.666Z,6.00
2022-09-01T09:14:38.683Z,6.70
2022-09-01T09:17:07.942Z,6.70
2022-09-01T09:19:41.193Z,6.30
2022-09-01T09:22:11.919Z,5.30
2022-09-01T09:25:09.649Z,5.50
2022-09-01T09:27:40.965Z,5.60
2022-09-01T09:30:11.313Z,5.80
2022-09-01T09:35:46.933Z,6.90
2022-09-01T09:38:28.615Z,5.40
2022-09-01T09:41:18.803Z,6.50
2022-09-01T09:43:55.941Z,6.70
2022-09-01T09:46:33.445Z,7.30
2022-09-01T09:49:15.165Z,8.90
2022-09-01T09:51:49.223Z,5.30
2022-09-01T09:54:27.145Z,6.30
2022-09-01T09:57:11.419Z,6.80
2022-09-01T10:00:11.236Z,6.20
2022-09-01T10:02:43.901Z,6.60
2022-09-01T10:05:39.516Z,9.10
2022-09-01T10:08:37.035Z,7.10
2022-09-01T10:11:06.625Z,7.00
2022-09-01T10:13:36.601Z,6.80
2022-09-01T10:16:11.280Z,6.20
2022-09-01T10:18:45.086Z,5.60
2022-09-01T10:21:17.579Z,5.70
2022-09-01T10:23:45.132Z,5.30
2022-09-01T10:26:18.865Z,5.60
2022-09-01T10:29:01.909Z,4.90
2022-09-01T10:31:32.497Z,5.40
2022-09-01T10:34:06.354Z,6.40
2022-09-01T10:36:37.614Z,5.20
2022-09-01T10:39:12.215Z,7.40
2022-09-01T10:41:43.394Z,7.90
2022-09-01T10:44:19.524Z,5.90
2022-09-01T10:46:50.827Z,5.20
2022-09-01T10:49:27.758Z,5.30
2022-09-01T10:52:03.208Z,7.60
2022-09-01T10:54:50.817Z,6.20
2022-09-01T10:57:21.259Z,6.20
2022-09-01T10:59:56.743Z,7.20
2022-09-01T11:02:27.621Z,6.50
2022-09-01T11:04:59.465Z,8.30
2022-09-01T11:07:59.848Z,6.20
2022-09-01T11:11:08.611Z,8.00
2022-09-01T11:13:45.251Z,8.40
2022-09-01T11:19:37.676Z,7.70
2022-09-01T11:22:13.914Z,7.20
2022-09-01T11:24:41.452Z,5.70
2022-09-01T11:27:12.773Z,6.20
2022-09-01T11:29:55.547Z,6.70
2022-09-01T11:32:37.356Z,6.10
2022-09-01T11:35:19.773Z,6.00
2022-09-01T11:37:57.394Z,5.00
2022-09-01T11:40:33.563Z,5.50
2022-09-01T11:43:12.534Z,6.40
2022-09-01T11:45:51.929Z,5.50
2022-09-01T11:48:19.596Z,6.50
2022-09-01T11:50:59.530Z,5.50
2022-09-01T11:53:28.367Z,6.20
2022-09-01T11:56:13.115Z,7.40
2022-09-01T11:58:41.673Z,5.40
2022-09-01T12:01:14.436Z,6.00
2022-09-01T12:03:42.966Z,6.50
2022-09-01T12:06:19.093Z,5.40
2022-09-01T12:08:57.486Z,5.10
2022-09-01T12:11:31.493Z,5.30
2022-09-01T12:14:02.465Z,4.50
2022-09-01T12:16:35.615Z,6.00
2022-09-01T12:19:06.203Z,4.90
2022-09-01T12:21:43.723Z,4.60
2022-09-01T12:24:18.133Z,9.30
2022-09-01T12:26:54.345Z,6.80
2022-09-01T12:29:23.162Z,5.10
2022-09-01T12:31:52.690Z,4.30
2022-09-01T12:34:49.272Z,5.00
2022-09-01T12:37:16.638Z,4.40
2022-09-01T12:39:50.133Z,4.80
2022-09-01T12:42:30.101Z,6.40
2022-09-01T12:45:11.400Z,5.60
2022-09-01T12:47:48.088Z,5.30
2022-09-01T12:50:17.014Z,4.70
2022-09-01T12:52:56.338Z,4.70
2022-09-01T12:55:48.348Z,5.00
2022-09-01T12:58:21.654Z,4.60
2022-09-01T13:01:05.244Z,5.10
2022-09-01T13:03:34.646Z,4.60
2022-09-01T13:06:04.556Z,6.00
2022-09-01T13:08:35.173Z,5.10
2022-09-01T13:11:17.962Z,4.40
2022-09-01T13:13:46.632Z,4.90
2022-09-01T13:16:14.441Z,5.50
2022-09-01T13:21:33.704Z,5.70
2022-09-01T13:24:04.908Z,4.70
2022-09-01T13:26:33.792Z,4.30
2022-09-01T13:29:01.875Z,5.30
2022-09-01T13:34:23.287Z,3.80
2022-09-01T13:36:51.499Z,4.10
2022-09-01T13:39:21.472Z,4.50
2022-09-01T13:41:49.639Z,5.60
2022-09-01T13:44:18.259Z,4.30
2022-09-01T13:50:04.545Z,5.40
2022-09-01T13:52:23.505Z,4.20
2022-09-01T13:54:51.046Z,5.00
2022-09-01T13:57:18.376Z,4.40
2022-09-01T13:59:45.795Z,4.40
2022-09-01T14:02:13.305Z,4.90
2022-09-01T14:04:40.856Z,4.30
2022-09-01T14:07:08.378Z,4.20
2022-09-01T14:09:36.488Z,4.60
2022-09-01T14:12:06.146Z,5.30
2022-09-01T14:17:22.955Z,4.40
2022-09-01T14:19:51.138Z,5.00
2022-09-01T14:22:19.056Z,3.80
2022-09-01T14:27:15.425Z,4.80
2022-09-01T14:32:11.062Z,4.60
2022-09-01T14:34:38.492Z,5.70
2022-09-01T14:37:07.195Z,4.20
2022-09-01T14:39:34.794Z,6.50
2022-09-01T14:42:03.772Z,3.60
2022-09-01T14:44:33.576Z,5.70
2022-09-01T14:47:02.116Z,4.90
2022-09-01T14:49:33.387Z,4.50
2022-09-01T14:52:17.677Z,4.20
2022-09-01T14:54:45.522Z,5.20
2022-09-01T14:57:33.097Z,4.20
2022-09-01T15:00:01.729Z,4.10
2022-09-01T15:02:29.280Z,4.70
2022-09-01T15:04:56.977Z,3.40
2022-09-01T15:07:24.588Z,4.00
2022-09-01T15:09:52.757Z,5.80
2022-09-01T15:12:20.189Z,3.70
2022-09-01T15:14:47.629Z,3.70
2022-09-01T15:17:15.197Z,4.40
2022-09-01T15:19:42.965Z,3.60
2022-09-01T15:22:12.962Z,3.70
2022-09-01T15:24:40.435Z,5.40
2022-09-01T15:27:08.241Z,4.90
2022-09-01T15:29:44.701Z,3.30
2022-09-01T15:32:23.865Z,3.40
2022-09-01T15:34:56.492Z,3.90
2022-09-01T15:37:23.944Z,4.60
2022-09-01T15:39:51.324Z,5.00
2022-09-01T15:42:18.862Z,3.80
2022-09-01T15:44:47.359Z,4.70
2022-09-01T15:47:14.887Z,4.50
2022-09-01T15:49:42.478Z,3.00
2022-09-01T15:52:11.288Z,3.70
2022-09-01T15:54:39.591Z,3.40
2022-09-01T15:57:08.943Z,2.90
2022-09-01T15:59:39.917Z,4.40
2022-09-01T16:02:08.053Z,3.50
2022-09-01T16:04:36.608Z,5.00
2022-09-01T16:07:04.588Z,4.70
2022-09-01T16:11:59.981Z,3.10
2022-09-01T16:14:31.079Z,4.00
2022-09-01T16:17:34.131Z,3.10
2022-09-01T16:20:20.063Z,3.40
2022-09-01T16:23:08.290Z,3.60
2022-09-01T16:25:35.797Z,3.40
2022-09-01T16:28:37.813Z,3.70
2022-09-01T16:31:14.604Z,4.30
2022-09-01T16:33:51.402Z,3.60
2022-09-01T16:36:48.071Z,3.30
2022-09-01T16:39:28.494Z,2.90
2022-09-01T16:42:13.482Z,3.00
2022-09-01T16:45:01.060Z,4.70
2022-09-01T16:47:41.097Z,2.90
2022-09-01T16:50:29.857Z,4.30
2022-09-01T16:53:26.124Z,3.60
2022-09-01T16:56:08.873Z,5.50
2022-09-01T16:58:45.035Z,3.40
2022-09-01T17:01:22.941Z,3.30
2022-09-01T17:03:59.143Z,3.50
2022-09-01T17:06:35.798Z,3.20
2022-09-01T17:09:22.093Z,2.40
2022-09-01T17:11:58.693Z,2.70
2022-09-01T17:14:39.316Z,3.70
2022-09-01T17:17:19.643Z,3.10
2022-09-01T17:19:52.344Z,4.10
2022-09-01T17:22:21.492Z,3.40
2022-09-01T17:25:38.980Z,2.80
2022-09-01T17:28:14.901Z,3.30
2022-09-01T17:31:09.709Z,3.00
2022-09-01T17:34:11.586Z,3.10
2022-09-01T17:36:50.616Z,4.10
2022-09-01T17:39:49.178Z,3.00
2022-09-01T17:42:43.583Z,2.80
2022-09-01T17:45:13.024Z,4.00
2022-09-01T17:47:46.624Z,2.90
2022-09-01T17:50:29.403Z,3.00
2022-09-01T17:53:09.995Z,3.20
2022-09-01T17:55:41.323Z,3.60
2022-09-01T17:58:16.708Z,4.20
2022-09-01T18:00:59.883Z,3.40
2022-09-01T18:03:33.016Z,3.10
2022-09-01T18:06:39.296Z,2.70
2022-09-01T18:09:08.498Z,3.30
2022-09-01T18:11:47.559Z,3.00
2022-09-01T18:14:30.436Z,4.00
2022-09-01T18:17:07.236Z,4.10
2022-09-01T18:19:43.017Z,3.10
2022-09-01T18:22:16.340Z,2.90
2022-09-01T18:24:58.599Z,3.30
2022-09-01T18:27:30.020Z,6.50
2022-09-01T18:30:03.960Z,4.10
2022-09-01T18:32:38.607Z,3.30
2022-09-01T18:35:23.189Z,3.50
2022-09-01T18:38:14.530Z,5.50
2022-09-01T18:43:37.697Z,7.60
2022-09-01T18:46:23.784Z,7.50
2022-09-01T18:48:56.749Z,6.30
2022-09-01T18:51:43.444Z,7.90
2022-09-01T18:54:16.290Z,5.60
2022-09-01T18:56:55.499Z,6.80
2022-09-01T18:59:37.061Z,7.70
2022-09-01T19:02:32.560Z,7.60
2022-09-01T19:05:09.772Z,6.10
2022-09-01T19:07:54.863Z,7.20
2022-09-01T19:10:54.666Z,6.20
2022-09-01T19:13:33.503Z,6.70
2022-09-01T19:16:14.017Z,6.60
2022-09-01T19:18:47.701Z,8.00
2022-09-01T19:21:23.056Z,6.40
2022-09-01T19:23:59.366Z,8.40
2022-09-01T19:26:31.775Z,8.80
2022-09-01T19:29:07.385Z,6.30
2022-09-01T19:31:50.618Z,6.50
2022-09-01T19:34:33.967Z,7.40
2022-09-01T19:37:03.207Z,8.40
2022-09-01T19:39:38.037Z,7.20
2022-09-01T19:42:40.818Z,7.20
2022-09-01T19:45:42.988Z,8.90
2022-09-01T19:48:17.998Z,7.10
2022-09-01T19:51:15.232Z,6.50
2022-09-01T19:53:51.409Z,7.80
2022-09-01T19:56:49.441Z,7.20
2022-09-01T19:59:42.878Z,8.40
2022-09-01T20:02:21.429Z,6.60
2022-09-01T20:05:01.695Z,7.10
2022-09-01T20:07:45.933Z,7.40
2022-09-01T20:10:24.732Z,7.40
2022-09-01T20:13:31.414Z,6.70
2022-09-01T20:16:15.905Z,6.90
2022-09-01T20:18:54.202Z,8.40
2022-09-01T20:21:24.227Z,8.00
2022-09-01T20:24:01.047Z,7.80
2022-09-01T20:26:43.448Z,7.10
2022-09-01T20:29:38.286Z,7.20
2022-09-01T20:32:08.761Z,8.00
2022-09-01T20:34:59.773Z,7.80
2022-09-01T20:37:52.073Z,6.80
2022-09-01T20:40:54.832Z,9.30
2022-09-01T20:43:43.153Z,9.90
2022-09-01T20:46:37.622Z,7.00
2022-09-01T20:49:14.130Z,8.10
2022-09-01T20:51:48.036Z,7.50
2022-09-01T20:54:29.207Z,8.80
2022-09-01T20:57:36.932Z,8.50
2022-09-01T21:00:10.317Z,7.60
2022-09-01T21:02:41.437Z,10.50
2022-09-01T21:05:20.874Z,10.30
2022-09-01T21:08:08.284Z,7.00
2022-09-01T21:10:43.438Z,10.80
2022-09-01T21:13:44.935Z,8.30
2022-09-01T21:16:21.518Z,8.40
2022-09-01T21:18:57.895Z,7.10
2022-09-01T21:21:55.946Z,9.00
2022-09-01T21:24:23.572Z,9.10
2022-09-01T21:26:52.154Z,9.60
2022-09-01T21:29:46.878Z,7.30
2022-09-01T21:32:16.032Z,8.50
2022-09-01T21:34:45.105Z,10.10
2022-09-01T21:37:13.906Z,10.50
2022-09-01T21:39:45.105Z,8.20
2022-09-01T21:42:13.595Z,9.30
2022-09-01T21:44:51.859Z,9.80
2022-09-01T21:47:25.808Z,10.40
2022-09-01T21:49:53.565Z,9.10
2022-09-01T21:52:28.306Z,7.70
2022-09-01T21:54:56.034Z,10.50
2022-09-01T21:57:23.593Z,8.50
2022-09-01T21:59:51.319Z,9.60
2022-09-01T22:02:39.555Z,9.80
2022-09-01T22:05:07.504Z,8.50
2022-09-01T22:07:45.209Z,10.60
2022-09-01T22:10:25.219Z,9.90
2022-09-01T22:12:54.316Z,9.30
2022-09-01T22:15:27.547Z,10.20
2022-09-01T22:17:57.402Z,10.30
2022-09-01T22:20:28.277Z,10.00
2022-09-01T22:23:08.879Z,11.00
2022-09-01T22:25:41.944Z,8.30
2022-09-01T22:28:14.024Z,11.10
2022-09-01T22:30:50.549Z,10.40
2022-09-01T22:33:22.722Z,9.50
2022-09-01T22:35:55.848Z,9.30
2022-09-01T22:38:26.296Z,9.40
2022-09-01T22:40:56.978Z,7.50
2022-09-01T22:43:29.924Z,9.50
2022-09-01T22:45:59.300Z,10.20
2022-09-01T22:48:29.910Z,9.90
2022-09-01T22:51:07.081Z,10.20
2022-09-01T22:53:44.829Z,8.90
2022-09-01T22:56:20.177Z,10.50
2022-09-01T22:58:49.650Z,9.70
2022-09-01T23:01:31.325Z,9.70
2022-09-01T23:04:11.481Z,10.50
2022-09-01T23:06:43.728Z,10.20
2022-09-01T23:09:14.803Z,9.20
2022-09-01T23:11:46.069Z,10.10
2022-09-01T23:14:17.388Z,8.70
2022-09-01T23:16:47.322Z,9.60
2022-09-01T23:19:40.982Z,9.40
2022-09-01T23:22:11.707Z,9.70
2022-09-01T23:24:42.771Z,10.70
2022-09-01T23:27:10.767Z,11.80
2022-09-01T23:29:52.775Z,8.60
2022-09-01T23:32:20.615Z,9.90
2022-09-01T23:34:59.147Z,9.40
2022-09-01T23:37:28.454Z,9.30
2022-09-01T23:39:57.233Z,11.50
2022-09-01T23:42:27.255Z,10.90
2022-09-01T23:44:58.111Z,10.10
2022-09-01T23:47:35.279Z,11.20
2022-09-01T23:50:06.194Z,9.80
2022-09-01T23:52:34.688Z,8.40
2022-09-01T23:55:02.466Z,9.90
2022-09-01T23:57:33.391Z,12.60
